sensor_id;sensor_type;location;lat;lon;timestamp;P1;durP1;ratioP1;P2;durP2;ratioP2
17504;SDS011;8870;50.950;11.762;2023-07-31T00:03:49;2.25;;;0.90;;
17504;SDS011;8870;50.950;11.762;2023-07-31T00:09:07;1.98;;;0.70;;
17504;SDS011;8870;50.950;11.762;2023-07-31T00:14:41;1.88;;;0.88;;
17504;SDS011;8870;50.950;11.762;2023-07-31T00:20:12;1.83;;;0.70;;
17504;SDS011;8870;50.950;11.762;2023-07-31T00:25:37;3.47;;;1.10;;
17504;SDS011;8870;50.950;11.762;2023-07-31T00:31:11;4.00;;;0.90;;
17504;SDS011;8870;50.950;11.762;2023-07-31T00:36:29;3.08;;;1.05;;
17504;SDS011;8870;50.950;11.762;2023-07-31T00:42:01;2.78;;;1.00;;
17504;SDS011;8870;50.950;11.762;2023-07-31T00:47:22;2.70;;;1.10;;
17504;SDS011;8870;50.950;11.762;2023-07-31T00:52:53;2.05;;;0.95;;
17504;SDS011;8870;50.950;11.762;2023-07-31T00:58:11;2.22;;;0.93;;
17504;SDS011;8870;50.950;11.762;2023-07-31T01:03:45;3.03;;;1.10;;
17504;SDS011;8870;50.950;11.762;2023-07-31T01:09:04;1.92;;;0.90;;
17504;SDS011;8870;50.950;11.762;2023-07-31T01:14:50;3.45;;;1.23;;
17504;SDS011;8870;50.950;11.762;2023-07-31T01:20:25;3.67;;;1.17;;
17504;SDS011;8870;50.950;11.762;2023-07-31T01:25:56;3.03;;;1.02;;
17504;SDS011;8870;50.950;11.762;2023-07-31T01:31:33;2.72;;;1.13;;
17504;SDS011;8870;50.950;11.762;2023-07-31T01:36:55;3.25;;;0.95;;
17504;SDS011;8870;50.950;11.762;2023-07-31T01:42:30;4.55;;;1.20;;
17504;SDS011;8870;50.950;11.762;2023-07-31T01:47:49;1.80;;;1.00;;
17504;SDS011;8870;50.950;11.762;2023-07-31T01:53:20;5.07;;;1.00;;
17504;SDS011;8870;50.950;11.762;2023-07-31T01:58:41;2.10;;;0.95;;
17504;SDS011;8870;50.950;11.762;2023-07-31T02:04:12;3.75;;;1.20;;
17504;SDS011;8870;50.950;11.762;2023-07-31T02:09:30;4.63;;;1.27;;
17504;SDS011;8870;50.950;11.762;2023-07-31T02:15:04;2.25;;;1.02;;
17504;SDS011;8870;50.950;11.762;2023-07-31T02:20:36;2.90;;;1.00;;
17504;SDS011;8870;50.950;11.762;2023-07-31T02:25:54;2.10;;;1.02;;
17504;SDS011;8870;50.950;11.762;2023-07-31T02:31:28;2.70;;;1.00;;
17504;SDS011;8870;50.950;11.762;2023-07-31T02:36:46;3.85;;;1.20;;
17504;SDS011;8870;50.950;11.762;2023-07-31T02:42:17;8.00;;;1.30;;
17504;SDS011;8870;50.950;11.762;2023-07-31T02:47:38;5.80;;;1.50;;
17504;SDS011;8870;50.950;11.762;2023-07-31T02:53:09;5.10;;;1.40;;
17504;SDS011;8870;50.950;11.762;2023-07-31T02:58:27;5.85;;;1.40;;
17504;SDS011;8870;50.950;11.762;2023-07-31T03:04:01;6.05;;;1.58;;
17504;SDS011;8870;50.950;11.762;2023-07-31T03:09:19;2.67;;;1.10;;
17504;SDS011;8870;50.950;11.762;2023-07-31T03:14:50;5.50;;;1.35;;
17504;SDS011;8870;50.950;11.762;2023-07-31T03:20:24;4.25;;;1.40;;
17504;SDS011;8870;50.950;11.762;2023-07-31T03:25:54;5.45;;;1.60;;
17504;SDS011;8870;50.950;11.762;2023-07-31T03:31:27;4.78;;;1.30;;
17504;SDS011;8870;50.950;11.762;2023-07-31T03:36:48;3.88;;;1.40;;
17504;SDS011;8870;50.950;11.762;2023-07-31T03:42:19;4.43;;;1.40;;
17504;SDS011;8870;50.950;11.762;2023-07-31T03:47:37;4.57;;;1.50;;
17504;SDS011;8870;50.950;11.762;2023-07-31T03:53:11;4.60;;;1.60;;
17504;SDS011;8870;50.950;11.762;2023-07-31T03:58:30;4.47;;;1.67;;
17504;SDS011;8870;50.950;11.762;2023-07-31T04:04:01;5.95;;;1.70;;
17504;SDS011;8870;50.950;11.762;2023-07-31T04:09:22;4.88;;;1.50;;
17504;SDS011;8870;50.950;11.762;2023-07-31T04:14:56;5.60;;;1.58;;
17504;SDS011;8870;50.950;11.762;2023-07-31T04:20:14;4.20;;;1.58;;
17504;SDS011;8870;50.950;11.762;2023-07-31T04:25:49;3.42;;;1.38;;
17504;SDS011;8870;50.950;11.762;2023-07-31T04:31:20;3.67;;;1.50;;
17504;SDS011;8870;50.950;11.762;2023-07-31T04:36:38;3.72;;;1.45;;
17504;SDS011;8870;50.950;11.762;2023-07-31T04:42:12;4.75;;;1.40;;
17504;SDS011;8870;50.950;11.762;2023-07-31T04:47:30;3.15;;;1.35;;
17504;SDS011;8870;50.950;11.762;2023-07-31T04:53:01;4.28;;;1.30;;
17504;SDS011;8870;50.950;11.762;2023-07-31T04:58:22;4.72;;;1.40;;
17504;SDS011;8870;50.950;11.762;2023-07-31T05:03:53;5.15;;;1.50;;
17504;SDS011;8870;50.950;11.762;2023-07-31T05:09:11;5.03;;;1.48;;
17504;SDS011;8870;50.950;11.762;2023-07-31T05:14:32;4.93;;;1.42;;
17504;SDS011;8870;50.950;11.762;2023-07-31T05:20:04;4.38;;;1.50;;
17504;SDS011;8870;50.950;11.762;2023-07-31T05:25:30;4.65;;;1.60;;
17504;SDS011;8870;50.950;11.762;2023-07-31T05:31:04;3.58;;;1.17;;
17504;SDS011;8870;50.950;11.762;2023-07-31T05:36:22;3.28;;;1.52;;
17504;SDS011;8870;50.950;11.762;2023-07-31T05:41:53;4.22;;;1.48;;
17504;SDS011;8870;50.950;11.762;2023-07-31T05:47:14;4.07;;;1.42;;
17504;SDS011;8870;50.950;11.762;2023-07-31T05:52:45;3.25;;;1.55;;
17504;SDS011;8870;50.950;11.762;2023-07-31T05:58:03;3.28;;;1.38;;
17504;SDS011;8870;50.950;11.762;2023-07-31T06:03:37;3.22;;;1.30;;
17504;SDS011;8870;50.950;11.762;2023-07-31T06:08:55;3.80;;;1.25;;
17504;SDS011;8870;50.950;11.762;2023-07-31T06:14:27;4.20;;;1.27;;
17504;SDS011;8870;50.950;11.762;2023-07-31T06:19:48;3.42;;;1.35;;
17504;SDS011;8870;50.950;11.762;2023-07-31T06:25:19;3.28;;;1.25;;
17504;SDS011;8870;50.950;11.762;2023-07-31T06:30:50;4.13;;;1.40;;
17504;SDS011;8870;50.950;11.762;2023-07-31T06:36:11;3.00;;;1.30;;
17504;SDS011;8870;50.950;11.762;2023-07-31T06:41:43;4.30;;;1.30;;
17504;SDS011;8870;50.950;11.762;2023-07-31T06:47:03;3.05;;;1.20;;
17504;SDS011;8870;50.950;11.762;2023-07-31T06:52:37;2.65;;;1.15;;
17504;SDS011;8870;50.950;11.762;2023-07-31T06:57:56;3.50;;;1.35;;
17504;SDS011;8870;50.950;11.762;2023-07-31T07:03:27;4.65;;;1.38;;
17504;SDS011;8870;50.950;11.762;2023-07-31T07:08:48;2.83;;;1.08;;
17504;SDS011;8870;50.950;11.762;2023-07-31T07:14:19;6.15;;;1.35;;
17504;SDS011;8870;50.950;11.762;2023-07-31T07:19:40;2.25;;;1.20;;
17504;SDS011;8870;50.950;11.762;2023-07-31T07:25:14;3.10;;;1.27;;
17504;SDS011;8870;50.950;11.762;2023-07-31T07:30:32;3.20;;;1.13;;
17504;SDS011;8870;50.950;11.762;2023-07-31T07:36:03;3.05;;;1.20;;
17504;SDS011;8870;50.950;11.762;2023-07-31T07:41:27;6.32;;;1.30;;
17504;SDS011;8870;50.950;11.762;2023-07-31T07:46:58;2.00;;;1.13;;
17504;SDS011;8870;50.950;11.762;2023-07-31T07:52:16;2.33;;;1.10;;
17504;SDS011;8870;50.950;11.762;2023-07-31T07:57:50;2.88;;;1.20;;
17504;SDS011;8870;50.950;11.762;2023-07-31T08:03:09;3.55;;;1.40;;
17504;SDS011;8870;50.950;11.762;2023-07-31T08:08:41;2.22;;;1.10;;
17504;SDS011;8870;50.950;11.762;2023-07-31T08:14:03;2.53;;;1.27;;
17504;SDS011;8870;50.950;11.762;2023-07-31T08:19:35;3.03;;;1.23;;
17504;SDS011;8870;50.950;11.762;2023-07-31T08:24:54;2.92;;;1.30;;
17504;SDS011;8870;50.950;11.762;2023-07-31T08:30:30;2.33;;;1.23;;
17504;SDS011;8870;50.950;11.762;2023-07-31T08:35:48;2.55;;;1.27;;
17504;SDS011;8870;50.950;11.762;2023-07-31T08:41:20;3.88;;;1.30;;
17504;SDS011;8870;50.950;11.762;2023-07-31T08:46:43;3.85;;;1.20;;
17504;SDS011;8870;50.950;11.762;2023-07-31T08:52:16;3.88;;;1.17;;
17504;SDS011;8870;50.950;11.762;2023-07-31T08:57:35;2.33;;;1.20;;
17504;SDS011;8870;50.950;11.762;2023-07-31T09:03:13;2.75;;;1.30;;
17504;SDS011;8870;50.950;11.762;2023-07-31T09:08:34;4.28;;;1.35;;
17504;SDS011;8870;50.950;11.762;2023-07-31T09:14:05;3.83;;;1.20;;
17504;SDS011;8870;50.950;11.762;2023-07-31T09:19:28;2.85;;;1.20;;
17504;SDS011;8870;50.950;11.762;2023-07-31T09:25:05;3.03;;;1.23;;
17504;SDS011;8870;50.950;11.762;2023-07-31T09:30:43;1.85;;;1.10;;
17504;SDS011;8870;50.950;11.762;2023-07-31T09:36:19;1.70;;;1.00;;
17504;SDS011;8870;50.950;11.762;2023-07-31T09:41:44;1.80;;;1.20;;
17504;SDS011;8870;50.950;11.762;2023-07-31T09:47:22;4.20;;;1.40;;
17504;SDS011;8870;50.950;11.762;2023-07-31T09:52:44;2.17;;;1.17;;
17504;SDS011;8870;50.950;11.762;2023-07-31T09:58:16;1.83;;;1.17;;
17504;SDS011;8870;50.950;11.762;2023-07-31T10:03:35;1.65;;;1.17;;
17504;SDS011;8870;50.950;11.762;2023-07-31T10:09:11;1.90;;;1.00;;
17504;SDS011;8870;50.950;11.762;2023-07-31T10:14:34;2.28;;;1.13;;
17504;SDS011;8870;50.950;11.762;2023-07-31T10:20:07;2.42;;;1.30;;
17504;SDS011;8870;50.950;11.762;2023-07-31T10:25:29;2.10;;;1.20;;
17504;SDS011;8870;50.950;11.762;2023-07-31T10:31:02;1.77;;;1.10;;
17504;SDS011;8870;50.950;11.762;2023-07-31T10:36:21;3.10;;;1.40;;
17504;SDS011;8870;50.950;11.762;2023-07-31T10:41:55;2.15;;;1.23;;
17504;SDS011;8870;50.950;11.762;2023-07-31T10:47:14;1.85;;;1.13;;
17504;SDS011;8870;50.950;11.762;2023-07-31T10:52:49;1.98;;;1.20;;
17504;SDS011;8870;50.950;11.762;2023-07-31T10:58:11;4.00;;;1.42;;
17504;SDS011;8870;50.950;11.762;2023-07-31T11:03:45;2.33;;;1.17;;
17504;SDS011;8870;50.950;11.762;2023-07-31T11:09:06;2.55;;;1.38;;
17504;SDS011;8870;50.950;11.762;2023-07-31T11:14:46;4.72;;;1.40;;
17504;SDS011;8870;50.950;11.762;2023-07-31T11:20:12;2.97;;;1.42;;
17504;SDS011;8870;50.950;11.762;2023-07-31T11:25:43;3.45;;;1.20;;
17504;SDS011;8870;50.950;11.762;2023-07-31T11:31:04;2.08;;;1.40;;
17504;SDS011;8870;50.950;11.762;2023-07-31T11:36:36;3.33;;;1.23;;
17504;SDS011;8870;50.950;11.762;2023-07-31T11:41:58;2.78;;;1.50;;
17504;SDS011;8870;50.950;11.762;2023-07-31T11:47:32;2.50;;;1.48;;
17504;SDS011;8870;50.950;11.762;2023-07-31T11:52:53;3.22;;;1.10;;
17504;SDS011;8870;50.950;11.762;2023-07-31T11:58:29;2.38;;;1.02;;
17504;SDS011;8870;50.950;11.762;2023-07-31T12:03:51;2.75;;;1.35;;
17504;SDS011;8870;50.950;11.762;2023-07-31T12:09:23;1.90;;;1.20;;
17504;SDS011;8870;50.950;11.762;2023-07-31T12:14:42;1.92;;;1.30;;
17504;SDS011;8870;50.950;11.762;2023-07-31T12:20:15;1.85;;;1.20;;
17504;SDS011;8870;50.950;11.762;2023-07-31T12:25:33;1.48;;;1.17;;
17504;SDS011;8870;50.950;11.762;2023-07-31T12:31:05;2.10;;;1.30;;
17504;SDS011;8870;50.950;11.762;2023-07-31T12:36:27;3.85;;;1.23;;
17504;SDS011;8870;50.950;11.762;2023-07-31T12:42:01;2.47;;;1.30;;
17504;SDS011;8870;50.950;11.762;2023-07-31T12:47:19;2.17;;;1.20;;
17504;SDS011;8870;50.950;11.762;2023-07-31T12:52:54;2.25;;;1.10;;
17504;SDS011;8870;50.950;11.762;2023-07-31T12:58:13;1.17;;;1.00;;
17504;SDS011;8870;50.950;11.762;2023-07-31T13:03:45;3.60;;;1.27;;
17504;SDS011;8870;50.950;11.762;2023-07-31T13:09:07;1.38;;;1.20;;
17504;SDS011;8870;50.950;11.762;2023-07-31T13:14:38;2.10;;;1.17;;
17504;SDS011;8870;50.950;11.762;2023-07-31T13:20:01;1.77;;;1.15;;
17504;SDS011;8870;50.950;11.762;2023-07-31T13:25:34;2.40;;;1.20;;
17504;SDS011;8870;50.950;11.762;2023-07-31T13:30:53;2.72;;;1.08;;
17504;SDS011;8870;50.950;11.762;2023-07-31T13:36:24;1.48;;;1.00;;
17504;SDS011;8870;50.950;11.762;2023-07-31T13:41:45;1.15;;;0.90;;
17504;SDS011;8870;50.950;11.762;2023-07-31T13:47:16;2.22;;;1.23;;
17504;SDS011;8870;50.950;11.762;2023-07-31T13:52:35;1.60;;;1.00;;
17504;SDS011;8870;50.950;11.762;2023-07-31T13:58:09;1.77;;;1.10;;
17504;SDS011;8870;50.950;11.762;2023-07-31T14:03:28;2.22;;;1.02;;
17504;SDS011;8870;50.950;11.762;2023-07-31T14:09:02;1.33;;;1.00;;
17504;SDS011;8870;50.950;11.762;2023-07-31T14:14:22;3.15;;;1.05;;
17504;SDS011;8870;50.950;11.762;2023-07-31T14:19:55;1.33;;;1.10;;
17504;SDS011;8870;50.950;11.762;2023-07-31T14:25:15;1.88;;;1.10;;
17504;SDS011;8870;50.950;11.762;2023-07-31T14:30:48;2.97;;;1.40;;
17504;SDS011;8870;50.950;11.762;2023-07-31T14:36:07;2.25;;;1.20;;
17504;SDS011;8870;50.950;11.762;2023-07-31T14:41:37;4.28;;;1.20;;
17504;SDS011;8870;50.950;11.762;2023-07-31T14:46:58;2.05;;;1.30;;
17504;SDS011;8870;50.950;11.762;2023-07-31T14:52:30;3.97;;;1.35;;
17504;SDS011;8870;50.950;11.762;2023-07-31T14:57:49;2.95;;;1.40;;
17504;SDS011;8870;50.950;11.762;2023-07-31T15:03:23;3.38;;;1.13;;
17504;SDS011;8870;50.950;11.762;2023-07-31T15:08:42;1.48;;;1.20;;
17504;SDS011;8870;50.950;11.762;2023-07-31T15:14:14;3.75;;;1.40;;
17504;SDS011;8870;50.950;11.762;2023-07-31T15:19:35;2.35;;;1.35;;
17504;SDS011;8870;50.950;11.762;2023-07-31T15:25:06;2.15;;;1.20;;
17504;SDS011;8870;50.950;11.762;2023-07-31T15:30:26;3.88;;;1.30;;
17504;SDS011;8870;50.950;11.762;2023-07-31T15:35:59;3.25;;;1.40;;
17504;SDS011;8870;50.950;11.762;2023-07-31T15:41:18;4.25;;;1.30;;
17504;SDS011;8870;50.950;11.762;2023-07-31T15:46:50;4.35;;;1.55;;
17504;SDS011;8870;50.950;11.762;2023-07-31T15:52:11;4.75;;;1.30;;
17504;SDS011;8870;50.950;11.762;2023-07-31T15:57:43;3.55;;;1.30;;
17504;SDS011;8870;50.950;11.762;2023-07-31T16:03:01;2.50;;;1.35;;
17504;SDS011;8870;50.950;11.762;2023-07-31T16:08:35;3.13;;;1.45;;
17504;SDS011;8870;50.950;11.762;2023-07-31T16:13:56;3.03;;;1.30;;
17504;SDS011;8870;50.950;11.762;2023-07-31T16:19:27;2.03;;;1.27;;
17504;SDS011;8870;50.950;11.762;2023-07-31T16:24:48;4.03;;;1.50;;
17504;SDS011;8870;50.950;11.762;2023-07-31T16:30:20;3.15;;;1.45;;
17504;SDS011;8870;50.950;11.762;2023-07-31T16:35:38;2.28;;;1.30;;
17504;SDS011;8870;50.950;11.762;2023-07-31T16:41:11;2.47;;;1.50;;
17504;SDS011;8870;50.950;11.762;2023-07-31T16:46:30;4.55;;;1.52;;
17504;SDS011;8870;50.950;11.762;2023-07-31T16:52:01;1.98;;;1.27;;
17504;SDS011;8870;50.950;11.762;2023-07-31T16:57:21;2.60;;;1.30;;
17504;SDS011;8870;50.950;11.762;2023-07-31T17:02:54;3.15;;;1.40;;
17504;SDS011;8870;50.950;11.762;2023-07-31T17:08:12;2.83;;;1.30;;
17504;SDS011;8870;50.950;11.762;2023-07-31T17:13:45;2.33;;;1.30;;
17504;SDS011;8870;50.950;11.762;2023-07-31T17:19:05;3.28;;;1.30;;
17504;SDS011;8870;50.950;11.762;2023-07-31T17:24:37;2.70;;;1.35;;
17504;SDS011;8870;50.950;11.762;2023-07-31T17:29:58;1.85;;;1.40;;
17504;SDS011;8870;50.950;11.762;2023-07-31T17:35:30;2.42;;;1.30;;
17504;SDS011;8870;50.950;11.762;2023-07-31T17:40:50;2.45;;;1.35;;
17504;SDS011;8870;50.950;11.762;2023-07-31T17:46:24;3.33;;;1.40;;
17504;SDS011;8870;50.950;11.762;2023-07-31T17:51:43;2.95;;;1.48;;
17504;SDS011;8870;50.950;11.762;2023-07-31T17:57:14;2.95;;;1.30;;
17504;SDS011;8870;50.950;11.762;2023-07-31T18:02:34;4.57;;;1.52;;
17504;SDS011;8870;50.950;11.762;2023-07-31T18:08:06;3.08;;;1.38;;
17504;SDS011;8870;50.950;11.762;2023-07-31T18:13:24;1.92;;;1.20;;
17504;SDS011;8870;50.950;11.762;2023-07-31T18:18:57;6.70;;;1.63;;
17504;SDS011;8870;50.950;11.762;2023-07-31T18:24:23;5.55;;;1.50;;
17504;SDS011;8870;50.950;11.762;2023-07-31T18:29:54;2.95;;;1.30;;
17504;SDS011;8870;50.950;11.762;2023-07-31T18:35:14;3.25;;;1.40;;
17504;SDS011;8870;50.950;11.762;2023-07-31T18:40:46;2.10;;;1.35;;
17504;SDS011;8870;50.950;11.762;2023-07-31T18:46:04;4.13;;;1.50;;
17504;SDS011;8870;50.950;11.762;2023-07-31T18:51:38;4.60;;;1.50;;
17504;SDS011;8870;50.950;11.762;2023-07-31T18:56:57;3.65;;;1.35;;
17504;SDS011;8870;50.950;11.762;2023-07-31T19:02:21;3.72;;;1.48;;
17504;SDS011;8870;50.950;11.762;2023-07-31T19:07:48;4.72;;;1.63;;
17504;SDS011;8870;50.950;11.762;2023-07-31T19:13:07;2.50;;;1.25;;
17504;SDS011;8870;50.950;11.762;2023-07-31T19:18:38;2.85;;;1.42;;
17504;SDS011;8870;50.950;11.762;2023-07-31T19:23:58;3.40;;;1.30;;
17504;SDS011;8870;50.950;11.762;2023-07-31T19:29:31;2.88;;;1.40;;
17504;SDS011;8870;50.950;11.762;2023-07-31T19:34:49;2.83;;;1.30;;
17504;SDS011;8870;50.950;11.762;2023-07-31T19:40:24;3.20;;;1.60;;
17504;SDS011;8870;50.950;11.762;2023-07-31T19:45:43;4.25;;;1.50;;
17504;SDS011;8870;50.950;11.762;2023-07-31T19:51:15;4.93;;;1.50;;
17504;SDS011;8870;50.950;11.762;2023-07-31T19:56:35;3.20;;;1.30;;
17504;SDS011;8870;50.950;11.762;2023-07-31T20:02:07;2.55;;;1.30;;
17504;SDS011;8870;50.950;11.762;2023-07-31T20:07:26;2.80;;;1.40;;
17504;SDS011;8870;50.950;11.762;2023-07-31T20:13:00;2.83;;;1.13;;
17504;SDS011;8870;50.950;11.762;2023-07-31T20:18:19;1.70;;;1.10;;
17504;SDS011;8870;50.950;11.762;2023-07-31T20:23:51;2.13;;;1.17;;
17504;SDS011;8870;50.950;11.762;2023-07-31T20:29:12;3.45;;;1.13;;
17504;SDS011;8870;50.950;11.762;2023-07-31T20:34:43;2.30;;;1.30;;
17504;SDS011;8870;50.950;11.762;2023-07-31T20:40:04;2.97;;;1.50;;
17504;SDS011;8870;50.950;11.762;2023-07-31T20:45:39;2.47;;;1.10;;
17504;SDS011;8870;50.950;11.762;2023-07-31T20:50:59;2.30;;;1.33;;
17504;SDS011;8870;50.950;11.762;2023-07-31T20:56:31;2.30;;;1.33;;
17504;SDS011;8870;50.950;11.762;2023-07-31T21:01:53;3.10;;;1.38;;
17504;SDS011;8870;50.950;11.762;2023-07-31T21:07:24;3.33;;;1.33;;
17504;SDS011;8870;50.950;11.762;2023-07-31T21:12:42;3.67;;;1.40;;
17504;SDS011;8870;50.950;11.762;2023-07-31T21:18:17;4.65;;;1.38;;
17504;SDS011;8870;50.950;11.762;2023-07-31T21:23:36;2.55;;;1.30;;
17504;SDS011;8870;50.950;11.762;2023-07-31T21:29:08;3.40;;;1.50;;
17504;SDS011;8870;50.950;11.762;2023-07-31T21:34:42;4.13;;;1.50;;
17504;SDS011;8870;50.950;11.762;2023-07-31T21:40:01;3.38;;;1.80;;
17504;SDS011;8870;50.950;11.762;2023-07-31T21:45:34;2.20;;;1.40;;
17504;SDS011;8870;50.950;11.762;2023-07-31T21:51:08;2.53;;;1.50;;
17504;SDS011;8870;50.950;11.762;2023-07-31T21:56:26;3.28;;;1.70;;
17504;SDS011;8870;50.950;11.762;2023-07-31T22:01:58;3.22;;;1.65;;
17504;SDS011;8870;50.950;11.762;2023-07-31T22:07:19;3.78;;;1.80;;
17504;SDS011;8870;50.950;11.762;2023-07-31T22:12:51;2.33;;;1.50;;
17504;SDS011;8870;50.950;11.762;2023-07-31T22:18:09;2.65;;;1.77;;
17504;SDS011;8870;50.950;11.762;2023-07-31T22:23:45;3.60;;;1.60;;
17504;SDS011;8870;50.950;11.762;2023-07-31T22:29:11;2.38;;;1.40;;
17504;SDS011;8870;50.950;11.762;2023-07-31T22:34:43;2.90;;;1.50;;
17504;SDS011;8870;50.950;11.762;2023-07-31T22:40:05;2.90;;;1.60;;
17504;SDS011;8870;50.950;11.762;2023-07-31T22:45:43;2.95;;;1.70;;
17504;SDS011;8870;50.950;11.762;2023-07-31T22:51:02;2.20;;;1.30;;
17504;SDS011;8870;50.950;11.762;2023-07-31T22:56:37;2.97;;;1.65;;
17504;SDS011;8870;50.950;11.762;2023-07-31T23:01:56;2.45;;;1.25;;
17504;SDS011;8870;50.950;11.762;2023-07-31T23:07:31;2.92;;;1.35;;
17504;SDS011;8870;50.950;11.762;2023-07-31T23:12:51;2.22;;;1.30;;
17504;SDS011;8870;50.950;11.762;2023-07-31T23:18:23;2.90;;;1.58;;
17504;SDS011;8870;50.950;11.762;2023-07-31T23:23:41;3.28;;;1.35;;
17504;SDS011;8870;50.950;11.762;2023-07-31T23:29:14;2.00;;;1.38;;
17504;SDS011;8870;50.950;11.762;2023-07-31T23:34:47;1.98;;;1.17;;
17504;SDS011;8870;50.950;11.762;2023-07-31T23:40:06;2.60;;;1.15;;
17504;SDS011;8870;50.950;11.762;2023-07-31T23:45:40;2.67;;;1.30;;
17504;SDS011;8870;50.950;11.762;2023-07-31T23:50:59;1.02;;;1.00;;
17504;SDS011;8870;50.950;11.762;2023-07-31T23:56:31;2.13;;;1.30;;
